createdAt,value
2023-03-08T00:01:29.184Z,4.82
2023-03-08T00:04:34.034Z,4.37
2023-03-08T00:07:36.751Z,5.30
2023-03-08T00:10:39.238Z,4.90
2023-03-08T00:13:42.082Z,4.67
2023-03-08T00:16:44.686Z,4.88
2023-03-08T00:19:48.518Z,4.57
2023-03-08T00:25:53.364Z,5.03
2023-03-08T00:28:55.947Z,4.93
2023-03-08T00:31:58.507Z,5.33
2023-03-08T00:35:02.836Z,5.37
2023-03-08T00:38:05.336Z,5.47
2023-03-08T00:41:08.002Z,5.17
2023-03-08T00:44:10.539Z,5.10
2023-03-08T00:47:13.125Z,4.03
2023-03-08T00:50:17.462Z,4.93
2023-03-08T00:53:20.386Z,5.63
2023-03-08T00:56:22.848Z,4.72
2023-03-08T00:59:25.434Z,5.07
2023-03-08T01:02:27.984Z,5.40
2023-03-08T01:05:31.973Z,3.50
2023-03-08T01:08:34.763Z,5.03
2023-03-08T01:11:37.843Z,4.90
2023-03-08T01:14:40.330Z,5.70
2023-03-08T01:17:42.880Z,5.13
2023-03-08T01:20:46.746Z,4.77
2023-03-08T01:26:53.744Z,4.90
2023-03-08T01:29:56.268Z,6.53
2023-03-08T01:32:58.789Z,5.77
2023-03-08T01:36:04.176Z,6.03
2023-03-08T01:39:06.630Z,5.53
2023-03-08T01:42:09.502Z,5.50
2023-03-08T01:45:45.523Z,6.00
2023-03-08T01:48:50.981Z,5.27
2023-03-08T01:51:56.832Z,5.90
2023-03-08T01:55:01.421Z,5.77
2023-03-08T01:58:04.010Z,4.97
2023-03-08T02:01:06.880Z,5.40
2023-03-08T02:04:10.591Z,5.87
2023-03-08T02:07:14.432Z,6.25
2023-03-08T02:13:21.754Z,6.30
2023-03-08T02:16:24.383Z,5.83
2023-03-08T02:19:30.655Z,5.93
2023-03-08T02:22:41.175Z,5.70
2023-03-08T02:25:51.381Z,5.30
2023-03-08T02:28:53.890Z,5.63
2023-03-08T02:31:56.367Z,5.40
2023-03-08T02:34:59.056Z,5.80
2023-03-08T02:38:03.023Z,6.10
2023-03-08T02:41:05.747Z,5.67
2023-03-08T02:44:08.235Z,5.30
2023-03-08T02:47:11.020Z,5.30
2023-03-08T02:50:13.543Z,5.43
2023-03-08T02:53:17.439Z,5.63
2023-03-08T02:59:23.956Z,4.93
2023-03-08T03:02:26.624Z,5.47
2023-03-08T03:05:29.334Z,5.83
2023-03-08T03:08:33.248Z,5.60
2023-03-08T03:14:38.291Z,5.20
2023-03-08T03:17:40.759Z,4.80
2023-03-08T03:20:43.272Z,5.63
2023-03-08T03:23:47.070Z,6.33
2023-03-08T03:26:50.967Z,4.97
2023-03-08T03:32:55.894Z,5.90
2023-03-08T03:35:58.542Z,5.27
2023-03-08T03:39:02.560Z,5.37
2023-03-08T03:42:05.479Z,5.73
2023-03-08T03:45:08.756Z,5.72
2023-03-08T03:48:11.346Z,4.97
2023-03-08T03:51:18.496Z,5.07
2023-03-08T03:54:22.405Z,5.30
2023-03-08T04:00:27.675Z,5.53
2023-03-08T04:03:30.199Z,5.10
2023-03-08T04:06:34.310Z,4.90
2023-03-08T04:09:38.110Z,4.60
2023-03-08T04:12:40.705Z,5.60
2023-03-08T04:15:43.240Z,5.27
2023-03-08T04:18:45.774Z,5.10
2023-03-08T04:21:48.525Z,5.13
2023-03-08T04:24:52.373Z,5.30
2023-03-08T04:30:57.352Z,5.53
2023-03-08T04:33:59.933Z,6.10
2023-03-08T04:37:02.507Z,5.93
2023-03-08T04:40:09.373Z,5.20
2023-03-08T04:43:11.968Z,5.20
2023-03-08T04:46:15.144Z,4.97
2023-03-08T04:49:17.704Z,5.55
2023-03-08T04:52:20.750Z,5.03
2023-03-08T04:55:24.589Z,5.25
2023-03-08T04:58:27.376Z,5.60
2023-03-08T05:01:29.928Z,5.83
2023-03-08T05:04:32.417Z,5.33
2023-03-08T05:07:34.956Z,6.10
2023-03-08T05:10:39.138Z,6.27
2023-03-08T05:13:41.808Z,5.90
2023-03-08T05:16:44.350Z,6.37
2023-03-08T05:19:46.871Z,5.93
2023-03-08T05:22:58.710Z,5.27
2023-03-08T05:26:05.180Z,6.40
2023-03-08T05:29:07.726Z,6.17
2023-03-08T05:32:12.121Z,6.57
2023-03-08T05:35:18.231Z,5.90
2023-03-08T05:38:20.870Z,5.77
2023-03-08T05:41:24.696Z,5.70
2023-03-08T05:47:30.412Z,5.93
2023-03-08T05:50:32.993Z,4.95
2023-03-08T05:53:35.923Z,5.57
2023-03-08T05:56:39.723Z,6.15
2023-03-08T06:02:44.962Z,5.73
2023-03-08T06:05:47.488Z,6.70
2023-03-08T06:08:50.031Z,6.77
2023-03-08T06:11:53.852Z,6.77
2023-03-08T06:17:58.728Z,7.40
2023-03-08T06:21:04.885Z,7.53
2023-03-08T06:24:07.720Z,7.20
2023-03-08T06:27:11.576Z,7.70
2023-03-08T06:30:14.542Z,7.27
2023-03-08T06:33:17.389Z,8.13
2023-03-08T06:36:21.380Z,7.17
2023-03-08T06:39:23.965Z,7.67
2023-03-08T06:42:40.259Z,7.53
2023-03-08T06:45:43.913Z,8.20
2023-03-08T06:48:47.212Z,6.97
2023-03-08T06:51:50.067Z,7.53
2023-03-08T06:54:52.568Z,8.27
2023-03-08T06:57:56.478Z,7.73
2023-03-08T07:04:02.553Z,7.53
2023-03-08T07:07:07.558Z,7.10
2023-03-08T07:10:11.963Z,6.77
2023-03-08T07:13:15.800Z,7.33
2023-03-08T07:19:20.893Z,8.30
2023-03-08T07:22:23.456Z,6.97
2023-03-08T07:25:25.982Z,7.87
2023-03-08T07:28:29.959Z,7.60
2023-03-08T07:31:36.132Z,8.33
2023-03-08T07:34:38.719Z,7.90
2023-03-08T07:37:41.874Z,7.43
2023-03-08T07:40:44.925Z,7.47
2023-03-08T07:43:49.430Z,7.30
2023-03-08T07:46:51.998Z,9.43
2023-03-08T07:49:54.642Z,7.63
2023-03-08T07:52:57.167Z,7.33
2023-03-08T07:56:00.118Z,7.07
2023-03-08T07:59:03.996Z,6.65
2023-03-08T08:05:09.725Z,7.70
2023-03-08T08:08:13.869Z,6.43
2023-03-08T08:11:17.840Z,7.10
2023-03-08T08:14:21.708Z,7.10
2023-03-08T08:17:24.230Z,7.90
2023-03-08T08:20:27.168Z,7.13
2023-03-08T08:23:29.951Z,6.78
2023-03-08T08:26:32.567Z,10.33
2023-03-08T08:29:37.786Z,7.17
2023-03-08T08:32:40.505Z,6.37
2023-03-08T08:35:43.690Z,7.30
2023-03-08T08:38:47.046Z,6.88
2023-03-08T08:41:49.858Z,7.57
2023-03-08T08:44:54.943Z,7.85
2023-03-08T08:47:57.474Z,6.83
2023-03-08T08:51:00.682Z,7.23
2023-03-08T08:54:06.453Z,7.20
2023-03-08T08:57:09.133Z,6.60
2023-03-08T09:00:14.601Z,7.03
2023-03-08T09:03:17.113Z,6.70
2023-03-08T09:06:20.858Z,7.73
2023-03-08T09:09:23.495Z,7.73
2023-03-08T09:12:26.184Z,7.40
2023-03-08T09:15:30.326Z,7.70
2023-03-08T09:18:33.162Z,7.63
2023-03-08T09:21:35.733Z,7.03
2023-03-08T09:24:38.310Z,7.80
2023-03-08T09:27:42.219Z,7.57
2023-03-08T09:30:47.336Z,8.27
2023-03-08T09:33:51.915Z,7.90
2023-03-08T09:36:54.443Z,7.87
2023-03-08T09:39:56.957Z,8.13
2023-03-08T09:43:05.442Z,8.77
2023-03-08T09:46:12.491Z,7.80
2023-03-08T09:49:18.735Z,7.93
2023-03-08T09:52:24.267Z,8.77
2023-03-08T09:55:30.742Z,9.10
2023-03-08T09:58:36.468Z,8.50
2023-03-08T10:01:46.307Z,8.63
2023-03-08T10:05:11.964Z,8.20
2023-03-08T10:08:18.938Z,8.27
2023-03-08T10:11:25.799Z,7.93
2023-03-08T10:14:32.024Z,8.07
2023-03-08T10:17:41.949Z,7.60
2023-03-08T10:20:44.776Z,6.70
2023-03-08T10:23:49.052Z,6.63
2023-03-08T10:26:51.584Z,5.87
2023-03-08T10:29:55.796Z,5.03
2023-03-08T10:33:01.497Z,5.20
2023-03-08T10:36:09.571Z,3.97
2023-03-08T10:39:12.332Z,3.60
2023-03-08T10:42:16.499Z,3.35
2023-03-08T10:45:21.940Z,2.77
2023-03-08T10:48:25.811Z,2.70
2023-03-08T10:51:29.787Z,2.83
2023-03-08T10:54:32.525Z,3.00
2023-03-08T10:57:35.152Z,2.20
2023-03-08T11:00:39.184Z,2.67
2023-03-08T11:03:43.584Z,2.73
2023-03-08T11:06:46.401Z,1.93
2023-03-08T11:09:48.963Z,1.50
2023-03-08T11:13:02.540Z,2.00
2023-03-08T11:16:23.883Z,1.42
2023-03-08T11:19:44.960Z,1.57
2023-03-08T11:22:59.423Z,1.03
2023-03-08T11:26:05.289Z,0.97
2023-03-08T11:29:15.643Z,0.73
2023-03-08T11:32:39.371Z,0.73
2023-03-08T11:35:49.118Z,0.77
2023-03-08T11:38:55.758Z,0.90
2023-03-08T11:42:03.313Z,0.70
2023-03-08T11:45:17.958Z,0.80
2023-03-08T11:48:36.812Z,0.60
2023-03-08T11:51:45.701Z,0.93
2023-03-08T11:54:55.707Z,1.47
2023-03-08T11:58:02.571Z,0.80
2023-03-08T12:01:10.229Z,0.60
2023-03-08T12:04:15.295Z,0.70
2023-03-08T12:07:24.780Z,0.80
2023-03-08T12:10:29.910Z,0.67
2023-03-08T12:13:35.333Z,0.83
2023-03-08T12:16:44.079Z,0.80
2023-03-08T12:19:47.642Z,0.80
2023-03-08T12:22:57.359Z,0.50
2023-03-08T12:26:05.387Z,0.80
2023-03-08T12:29:13.721Z,0.80
2023-03-08T12:32:18.310Z,0.70
2023-03-08T12:35:32.002Z,0.67
2023-03-08T12:38:40.965Z,0.68
2023-03-08T12:41:43.646Z,0.83
2023-03-08T12:44:46.230Z,0.73
2023-03-08T12:47:57.050Z,0.80
2023-03-08T12:51:03.546Z,0.60
2023-03-08T12:54:07.364Z,0.93
2023-03-08T12:57:17.596Z,0.70
2023-03-08T13:00:28.861Z,0.60
2023-03-08T13:03:38.373Z,0.60
2023-03-08T13:07:05.351Z,0.77
2023-03-08T13:10:20.784Z,0.70
2023-03-08T13:13:38.813Z,0.50
2023-03-08T13:16:42.061Z,0.90
2023-03-08T13:19:45.191Z,0.40
2023-03-08T13:22:57.540Z,0.88
2023-03-08T13:26:13.682Z,0.60
2023-03-08T13:29:18.213Z,0.70
2023-03-08T13:32:22.380Z,0.40
2023-03-08T13:35:25.132Z,1.00
2023-03-08T13:38:29.952Z,0.40
2023-03-08T13:41:36.332Z,0.43
2023-03-08T13:44:39.279Z,0.40
2023-03-08T13:47:41.998Z,1.00
2023-03-08T13:50:46.389Z,0.50
2023-03-08T13:53:49.133Z,0.40
2023-03-08T13:56:55.077Z,0.70
2023-03-08T13:59:59.477Z,0.43
2023-03-08T14:03:06.447Z,0.73
2023-03-08T14:06:18.725Z,0.70
2023-03-08T14:09:21.918Z,0.33
2023-03-08T14:12:27.403Z,0.50
2023-03-08T14:15:30.646Z,0.30
2023-03-08T14:18:36.270Z,0.43
2023-03-08T14:21:39.061Z,0.60
2023-03-08T14:24:43.628Z,0.40
2023-03-08T14:27:47.534Z,0.90
2023-03-08T14:30:50.185Z,0.50
2023-03-08T14:34:00.320Z,0.50
2023-03-08T14:37:06.305Z,0.23
2023-03-08T14:40:21.030Z,0.50
2023-03-08T14:43:26.218Z,0.30
2023-03-08T14:46:30.151Z,0.30
2023-03-08T14:49:32.837Z,0.60
2023-03-08T14:52:37.866Z,0.30
2023-03-08T14:55:42.357Z,0.23
2023-03-08T14:58:49.300Z,0.40
2023-03-08T15:01:52.228Z,0.30
2023-03-08T15:04:54.737Z,0.30
2023-03-08T15:07:59.113Z,0.40
2023-03-08T15:11:01.677Z,1.13
2023-03-08T15:14:05.572Z,0.40
2023-03-08T15:17:08.168Z,0.30
2023-03-08T15:20:12.986Z,0.55
2023-03-08T15:23:19.701Z,0.40
2023-03-08T15:26:24.774Z,0.50
2023-03-08T15:29:29.963Z,0.50
2023-03-08T15:32:32.582Z,0.70
2023-03-08T15:35:35.181Z,0.55
2023-03-08T15:38:37.930Z,0.30
2023-03-08T15:41:40.580Z,0.38
2023-03-08T15:44:44.490Z,0.40
2023-03-08T15:47:56.700Z,0.40
2023-03-08T15:50:59.522Z,0.50
2023-03-08T15:54:02.469Z,0.82
2023-03-08T15:57:05.279Z,0.40
2023-03-08T16:00:13.022Z,0.40
2023-03-08T16:03:25.785Z,0.40
2023-03-08T16:06:28.383Z,0.30
2023-03-08T16:09:31.139Z,1.00
2023-03-08T16:12:33.901Z,0.40
2023-03-08T16:15:40.669Z,0.55
2023-03-08T16:18:44.649Z,1.30
2023-03-08T16:21:47.237Z,0.40
2023-03-08T16:24:50.188Z,0.40
2023-03-08T16:27:53.315Z,0.57
2023-03-08T16:30:58.274Z,0.50
2023-03-08T16:34:03.122Z,0.40
2023-03-08T16:37:06.473Z,0.40
2023-03-08T16:40:10.396Z,0.32
2023-03-08T16:43:13.330Z,0.47
2023-03-08T16:46:19.543Z,0.43
2023-03-08T16:49:22.957Z,0.50
2023-03-08T16:52:25.897Z,0.30
2023-03-08T16:55:28.402Z,0.50
2023-03-08T16:58:31.110Z,0.43
2023-03-08T17:01:35.079Z,0.40
2023-03-08T17:04:37.730Z,0.30
2023-03-08T17:07:40.349Z,0.60
2023-03-08T17:10:44.602Z,0.50
2023-03-08T17:13:50.789Z,0.60
2023-03-08T17:16:54.969Z,0.70
2023-03-08T17:19:58.125Z,0.83
2023-03-08T17:23:00.685Z,0.50
2023-03-08T17:26:04.730Z,0.60
2023-03-08T17:29:07.303Z,0.60
2023-03-08T17:32:11.222Z,0.60
2023-03-08T17:35:14.023Z,0.50
2023-03-08T17:38:16.459Z,0.52
2023-03-08T17:41:19.942Z,0.50
2023-03-08T17:44:22.506Z,0.30
2023-03-08T17:47:26.431Z,0.50
2023-03-08T17:50:30.928Z,1.00
2023-03-08T17:53:33.971Z,0.60
2023-03-08T17:56:38.604Z,0.68
2023-03-08T17:59:41.071Z,0.60
2023-03-08T18:02:45.028Z,0.77
2023-03-08T18:05:49.813Z,0.57
2023-03-08T18:08:52.438Z,0.57
2023-03-08T18:11:55.052Z,1.10
2023-03-08T18:14:57.683Z,1.10
2023-03-08T18:18:01.514Z,1.60
2023-03-08T18:21:13.038Z,1.20
2023-03-08T18:24:16.434Z,0.80
2023-03-08T18:27:19.054Z,1.00
2023-03-08T18:30:21.552Z,0.83
2023-03-08T18:33:25.581Z,0.97
2023-03-08T18:36:28.205Z,1.43
2023-03-08T18:39:30.767Z,0.70
2023-03-08T18:42:33.757Z,0.90
2023-03-08T18:45:36.290Z,1.10
2023-03-08T18:48:40.659Z,0.90
2023-03-08T18:51:43.921Z,0.70
2023-03-08T18:54:49.639Z,1.00
2023-03-08T18:57:52.666Z,0.50
2023-03-08T19:00:58.710Z,0.80
2023-03-08T19:04:06.030Z,0.80
2023-03-08T19:07:08.595Z,0.80
2023-03-08T19:10:14.723Z,0.90
2023-03-08T19:13:17.396Z,0.60
2023-03-08T19:16:22.966Z,0.40
2023-03-08T19:19:27.258Z,0.73
2023-03-08T19:22:30.120Z,0.50
2023-03-08T19:25:33.163Z,0.50
2023-03-08T19:28:38.250Z,0.98
2023-03-08T19:31:42.891Z,0.70
2023-03-08T19:34:48.367Z,0.60
2023-03-08T19:37:51.180Z,0.37
2023-03-08T19:40:54.114Z,0.40
2023-03-08T19:43:57.067Z,0.60
2023-03-08T19:47:00.242Z,0.80
2023-03-08T19:50:04.350Z,0.90
2023-03-08T19:53:06.959Z,0.83
2023-03-08T19:56:15.220Z,0.40
2023-03-08T19:59:18.152Z,0.57
2023-03-08T20:02:20.696Z,0.65
2023-03-08T20:05:25.078Z,0.77
2023-03-08T20:08:27.850Z,0.60
2023-03-08T20:11:30.792Z,0.60
2023-03-08T20:14:33.361Z,0.60
2023-03-08T20:17:38.614Z,0.40
2023-03-08T20:20:42.811Z,0.70
2023-03-08T20:23:45.414Z,0.87
2023-03-08T20:26:48.068Z,0.87
2023-03-08T20:29:53.073Z,0.70
2023-03-08T20:32:56.764Z,0.70
2023-03-08T20:36:01.531Z,1.07
2023-03-08T20:39:04.695Z,0.70
2023-03-08T20:42:07.399Z,0.60
2023-03-08T20:45:10.690Z,0.87
2023-03-08T20:48:13.203Z,0.90
2023-03-08T20:51:18.294Z,0.87
2023-03-08T20:54:20.856Z,0.80
2023-03-08T20:57:23.464Z,0.80
2023-03-08T21:00:26.134Z,1.37
2023-03-08T21:03:28.658Z,0.70
2023-03-08T21:06:32.869Z,1.10
2023-03-08T21:09:35.862Z,1.00
2023-03-08T21:12:39.177Z,0.63
2023-03-08T21:15:41.968Z,1.00
2023-03-08T21:18:45.827Z,0.73
2023-03-08T21:21:51.113Z,1.30
2023-03-08T21:24:53.690Z,0.90
2023-03-08T21:27:56.201Z,1.07
2023-03-08T21:30:58.724Z,1.67
2023-03-08T21:34:02.626Z,1.27
2023-03-08T21:37:06.509Z,1.03
2023-03-08T21:40:11.176Z,1.23
2023-03-08T21:43:13.777Z,1.33
2023-03-08T21:46:17.141Z,1.50
2023-03-08T21:49:21.712Z,1.10
2023-03-08T21:52:25.632Z,1.20
2023-03-08T21:55:28.254Z,1.20
2023-03-08T21:58:30.752Z,0.70
2023-03-08T22:01:33.670Z,0.90
2023-03-08T22:04:36.157Z,1.50
2023-03-08T22:07:40.201Z,2.80
2023-03-08T22:10:42.688Z,1.03
2023-03-08T22:13:45.637Z,1.00
2023-03-08T22:16:48.096Z,0.50
2023-03-08T22:19:51.817Z,0.90
2023-03-08T22:22:56.060Z,1.00
2023-03-08T22:25:58.842Z,0.60
2023-03-08T22:29:01.497Z,0.80
2023-03-08T22:32:04.705Z,0.40
2023-03-08T22:35:08.029Z,1.25
2023-03-08T22:38:11.942Z,0.73
2023-03-08T22:41:15.904Z,0.53
2023-03-08T22:44:18.446Z,0.73
2023-03-08T22:47:20.986Z,0.70
2023-03-08T22:50:23.540Z,0.87
2023-03-08T22:53:27.460Z,0.83
2023-03-08T22:56:30.581Z,0.77
2023-03-08T22:59:33.061Z,1.35
2023-03-08T23:02:35.600Z,1.30
2023-03-08T23:05:38.318Z,1.27
2023-03-08T23:08:42.359Z,1.55
2023-03-08T23:11:45.351Z,1.17
2023-03-08T23:14:47.974Z,1.48
2023-03-08T23:17:50.619Z,1.40
2023-03-08T23:20:53.200Z,1.03
2023-03-08T23:23:57.209Z,1.00
2023-03-08T23:27:01.909Z,0.80
2023-03-08T23:30:05.194Z,1.27
2023-03-08T23:33:07.649Z,1.20
2023-03-08T23:36:12.212Z,0.80
2023-03-08T23:39:16.083Z,0.63
2023-03-08T23:42:18.611Z,1.00
2023-03-08T23:45:21.250Z,0.70
2023-03-08T23:48:23.786Z,0.67
2023-03-08T23:51:28.008Z,0.70
2023-03-08T23:54:31.884Z,0.90
2023-03-08T23:57:34.445Z,0.83
